sensor_id;sensor_type;location;lat;lon;timestamp;pressure;altitude;pressure_sealevel;temperature;humidity
67803;BME280;54601;51.378;-1.342;2023-05-12T00:01:40;100604.91;;;19.78;35.32
67803;BME280;54601;51.378;-1.342;2023-05-12T00:04:05;100605.01;;;19.87;35.16
67803;BME280;54601;51.378;-1.342;2023-05-12T00:06:30;100605.18;;;20.13;35.16
67803;BME280;54601;51.378;-1.342;2023-05-12T00:08:55;100603.56;;;19.46;35.76
67803;BME280;54601;51.378;-1.342;2023-05-12T00:11:20;100605.43;;;19.51;35.69
67803;BME280;54601;51.378;-1.342;2023-05-12T00:13:45;100606.72;;;19.35;35.49
67803;BME280;54601;51.378;-1.342;2023-05-12T00:16:10;100607.65;;;19.77;35.20
67803;BME280;54601;51.378;-1.342;2023-05-12T00:18:36;100608.81;;;19.46;35.53
67803;BME280;54601;51.378;-1.342;2023-05-12T00:21:01;100611.70;;;19.78;35.21
67803;BME280;54601;51.378;-1.342;2023-05-12T00:23:26;100616.27;;;19.87;35.04
67803;BME280;54601;51.378;-1.342;2023-05-12T00:25:51;100618.09;;;19.90;34.99
67803;BME280;54601;51.378;-1.342;2023-05-12T00:28:17;100619.09;;;19.60;35.33
67803;BME280;54601;51.378;-1.342;2023-05-12T00:30:41;100621.11;;;19.52;35.44
67803;BME280;54601;51.378;-1.342;2023-05-12T00:33:06;100624.76;;;19.40;35.59
67803;BME280;54601;51.378;-1.342;2023-05-12T00:35:31;100626.48;;;19.50;35.44
67803;BME280;54601;51.378;-1.342;2023-05-12T00:37:56;100626.82;;;19.61;35.26
67803;BME280;54601;51.378;-1.342;2023-05-12T00:40:22;100626.62;;;19.49;35.20
67803;BME280;54601;51.378;-1.342;2023-05-12T00:42:47;100632.44;;;19.56;35.25
67803;BME280;54601;51.378;-1.342;2023-05-12T00:45:12;100631.73;;;19.47;35.34
67803;BME280;54601;51.378;-1.342;2023-05-12T00:47:37;100630.73;;;19.56;35.12
67803;BME280;54601;51.378;-1.342;2023-05-12T00:50:03;100633.23;;;19.36;35.16
67803;BME280;54601;51.378;-1.342;2023-05-12T00:52:27;100635.34;;;19.71;34.94
67803;BME280;54601;51.378;-1.342;2023-05-12T00:54:52;100638.16;;;19.51;35.30
67803;BME280;54601;51.378;-1.342;2023-05-12T00:57:18;100641.21;;;19.48;35.33
67803;BME280;54601;51.378;-1.342;2023-05-12T00:59:42;100641.20;;;19.66;35.39
67803;BME280;54601;51.378;-1.342;2023-05-12T01:02:07;100642.31;;;19.45;35.32
67803;BME280;54601;51.378;-1.342;2023-05-12T01:04:33;100642.23;;;19.80;35.13
67803;BME280;54601;51.378;-1.342;2023-05-12T01:07:02;100643.05;;;19.59;34.99
67803;BME280;54601;51.378;-1.342;2023-05-12T01:09:23;100644.51;;;19.75;34.60
67803;BME280;54601;51.378;-1.342;2023-05-12T01:11:48;100650.28;;;19.57;35.06
67803;BME280;54601;51.378;-1.342;2023-05-12T01:14:13;100644.53;;;19.77;34.55
67803;BME280;54601;51.378;-1.342;2023-05-12T01:16:51;100648.09;;;19.48;35.00
67803;BME280;54601;51.378;-1.342;2023-05-12T01:19:05;100647.81;;;19.57;34.92
67803;BME280;54601;51.378;-1.342;2023-05-12T01:21:28;100646.21;;;19.94;34.81
67803;BME280;54601;51.378;-1.342;2023-05-12T01:23:57;100653.81;;;19.38;35.16
67803;BME280;54601;51.378;-1.342;2023-05-12T01:26:18;100653.78;;;19.59;34.87
67803;BME280;54601;51.378;-1.342;2023-05-12T01:28:44;100655.05;;;19.40;35.15
67803;BME280;54601;51.378;-1.342;2023-05-12T01:31:09;100658.12;;;19.67;34.74
67803;BME280;54601;51.378;-1.342;2023-05-12T01:33:35;100659.88;;;19.41;34.95
67803;BME280;54601;51.378;-1.342;2023-05-12T01:35:59;100659.84;;;19.59;34.62
67803;BME280;54601;51.378;-1.342;2023-05-12T01:38:24;100656.23;;;20.05;34.47
67803;BME280;54601;51.378;-1.342;2023-05-12T01:40:49;100660.38;;;19.72;34.95
67803;BME280;54601;51.378;-1.342;2023-05-12T01:43:14;100662.00;;;19.56;34.75
67803;BME280;54601;51.378;-1.342;2023-05-12T01:45:39;100657.46;;;19.34;35.08
67803;BME280;54601;51.378;-1.342;2023-05-12T01:48:05;100658.17;;;19.64;34.96
67803;BME280;54601;51.378;-1.342;2023-05-12T01:50:30;100660.33;;;19.85;34.19
67803;BME280;54601;51.378;-1.342;2023-05-12T01:52:55;100667.72;;;19.61;34.51
67803;BME280;54601;51.378;-1.342;2023-05-12T01:55:20;100669.39;;;19.62;34.57
67803;BME280;54601;51.378;-1.342;2023-05-12T01:57:45;100672.35;;;19.76;34.14
67803;BME280;54601;51.378;-1.342;2023-05-12T02:00:11;100675.27;;;19.99;34.31
67803;BME280;54601;51.378;-1.342;2023-05-12T02:02:35;100676.41;;;19.36;34.78
67803;BME280;54601;51.378;-1.342;2023-05-12T02:05:00;100674.28;;;19.72;34.20
67803;BME280;54601;51.378;-1.342;2023-05-12T02:07:26;100676.91;;;19.78;34.07
67803;BME280;54601;51.378;-1.342;2023-05-12T02:09:51;100677.26;;;19.61;34.81
67803;BME280;54601;51.378;-1.342;2023-05-12T02:12:16;100676.98;;;19.62;34.81
67803;BME280;54601;51.378;-1.342;2023-05-12T02:14:41;100675.37;;;19.43;34.68
67803;BME280;54601;51.378;-1.342;2023-05-12T02:17:06;100679.68;;;19.70;34.12
67803;BME280;54601;51.378;-1.342;2023-05-12T02:19:31;100677.23;;;19.31;34.82
67803;BME280;54601;51.378;-1.342;2023-05-12T02:21:56;100679.62;;;19.70;34.28
67803;BME280;54601;51.378;-1.342;2023-05-12T02:24:21;100683.18;;;19.37;34.72
67803;BME280;54601;51.378;-1.342;2023-05-12T02:26:47;100684.57;;;19.33;34.71
67803;BME280;54601;51.378;-1.342;2023-05-12T02:29:12;100686.33;;;19.57;34.50
67803;BME280;54601;51.378;-1.342;2023-05-12T02:31:37;100686.92;;;19.59;34.65
67803;BME280;54601;51.378;-1.342;2023-05-12T02:34:02;100686.62;;;19.80;34.43
67803;BME280;54601;51.378;-1.342;2023-05-12T02:36:27;100690.07;;;19.99;34.45
67803;BME280;54601;51.378;-1.342;2023-05-12T02:38:52;100690.52;;;19.64;34.57
67803;BME280;54601;51.378;-1.342;2023-05-12T02:41:17;100692.82;;;19.66;34.76
67803;BME280;54601;51.378;-1.342;2023-05-12T02:43:42;100700.06;;;19.79;34.69
67803;BME280;54601;51.378;-1.342;2023-05-12T02:46:08;100703.61;;;19.23;34.69
67803;BME280;54601;51.378;-1.342;2023-05-12T02:48:33;100707.30;;;19.74;34.02
67803;BME280;54601;51.378;-1.342;2023-05-12T02:50:58;100707.10;;;19.93;34.13
67803;BME280;54601;51.378;-1.342;2023-05-12T02:53:23;100705.98;;;19.75;34.32
67803;BME280;54601;51.378;-1.342;2023-05-12T02:55:48;100706.75;;;19.49;34.46
67803;BME280;54601;51.378;-1.342;2023-05-12T02:58:13;100707.39;;;19.62;34.58
67803;BME280;54601;51.378;-1.342;2023-05-12T03:00:38;100708.38;;;19.97;34.07
67803;BME280;54601;51.378;-1.342;2023-05-12T03:03:03;100706.79;;;19.50;34.66
67803;BME280;54601;51.378;-1.342;2023-05-12T03:05:29;100712.91;;;19.88;34.09
67803;BME280;54601;51.378;-1.342;2023-05-12T03:07:54;100716.53;;;20.04;34.31
67803;BME280;54601;51.378;-1.342;2023-05-12T03:10:19;100713.19;;;19.51;34.26
67803;BME280;54601;51.378;-1.342;2023-05-12T03:12:44;100712.69;;;19.46;34.42
67803;BME280;54601;51.378;-1.342;2023-05-12T03:15:10;100717.52;;;19.64;34.27
67803;BME280;54601;51.378;-1.342;2023-05-12T03:17:34;100722.88;;;19.95;34.09
67803;BME280;54601;51.378;-1.342;2023-05-12T03:19:59;100726.14;;;19.71;34.02
67803;BME280;54601;51.378;-1.342;2023-05-12T03:22:25;100724.97;;;19.57;34.64
67803;BME280;54601;51.378;-1.342;2023-05-12T03:24:50;100723.05;;;19.99;34.00
67803;BME280;54601;51.378;-1.342;2023-05-12T03:27:15;100727.75;;;19.36;34.44
67803;BME280;54601;51.378;-1.342;2023-05-12T03:29:40;100727.88;;;19.54;34.34
67803;BME280;54601;51.378;-1.342;2023-05-12T03:32:06;100730.89;;;19.41;34.48
67803;BME280;54601;51.378;-1.342;2023-05-12T03:34:30;100729.26;;;19.76;33.87
67803;BME280;54601;51.378;-1.342;2023-05-12T03:36:55;100731.72;;;19.78;34.29
67803;BME280;54601;51.378;-1.342;2023-05-12T03:39:21;100731.10;;;19.62;34.08
67803;BME280;54601;51.378;-1.342;2023-05-12T03:41:46;100732.69;;;19.91;34.44
67803;BME280;54601;51.378;-1.342;2023-05-12T03:44:11;100737.86;;;19.57;34.67
67803;BME280;54601;51.378;-1.342;2023-05-12T03:46:36;100736.21;;;19.48;34.72
67803;BME280;54601;51.378;-1.342;2023-05-12T03:49:01;100739.41;;;19.43;34.83
67803;BME280;54601;51.378;-1.342;2023-05-12T03:51:26;100740.69;;;19.39;34.82
67803;BME280;54601;51.378;-1.342;2023-05-12T03:53:52;100748.19;;;19.42;34.49
67803;BME280;54601;51.378;-1.342;2023-05-12T03:56:17;100748.79;;;19.58;34.53
67803;BME280;54601;51.378;-1.342;2023-05-12T03:58:42;100749.66;;;19.19;34.67
67803;BME280;54601;51.378;-1.342;2023-05-12T04:01:07;100751.86;;;19.58;34.53
67803;BME280;54601;51.378;-1.342;2023-05-12T04:03:32;100751.55;;;19.51;34.71
67803;BME280;54601;51.378;-1.342;2023-05-12T04:05:58;100755.11;;;19.49;34.33
67803;BME280;54601;51.378;-1.342;2023-05-12T04:08:22;100757.78;;;19.56;34.17
67803;BME280;54601;51.378;-1.342;2023-05-12T04:10:48;100757.20;;;19.11;34.80
67803;BME280;54601;51.378;-1.342;2023-05-12T04:13:13;100758.24;;;19.53;34.71
67803;BME280;54601;51.378;-1.342;2023-05-12T04:15:38;100761.74;;;19.36;34.95
67803;BME280;54601;51.378;-1.342;2023-05-12T04:18:03;100765.88;;;19.27;34.66
67803;BME280;54601;51.378;-1.342;2023-05-12T04:20:28;100766.64;;;19.46;34.68
67803;BME280;54601;51.378;-1.342;2023-05-12T04:22:53;100764.80;;;19.16;34.85
67803;BME280;54601;51.378;-1.342;2023-05-12T04:25:19;100765.07;;;19.08;34.91
67803;BME280;54601;51.378;-1.342;2023-05-12T04:27:44;100767.95;;;19.34;34.94
67803;BME280;54601;51.378;-1.342;2023-05-12T04:30:10;100771.47;;;19.44;34.40
67803;BME280;54601;51.378;-1.342;2023-05-12T04:32:34;100764.30;;;19.45;34.69
67803;BME280;54601;51.378;-1.342;2023-05-12T04:34:59;100763.66;;;19.71;34.76
67803;BME280;54601;51.378;-1.342;2023-05-12T04:37:24;100768.06;;;19.56;34.68
67803;BME280;54601;51.378;-1.342;2023-05-12T04:39:50;100769.57;;;19.13;34.73
67803;BME280;54601;51.378;-1.342;2023-05-12T04:42:15;100780.71;;;19.19;34.76
67803;BME280;54601;51.378;-1.342;2023-05-12T04:44:40;100775.77;;;19.58;34.31
67803;BME280;54601;51.378;-1.342;2023-05-12T04:47:05;100776.22;;;19.81;34.31
67803;BME280;54601;51.378;-1.342;2023-05-12T04:49:30;100779.79;;;19.62;34.58
67803;BME280;54601;51.378;-1.342;2023-05-12T04:51:55;100782.12;;;19.95;34.09
67803;BME280;54601;51.378;-1.342;2023-05-12T04:54:21;100785.98;;;19.85;34.28
67803;BME280;54601;51.378;-1.342;2023-05-12T04:56:46;100789.93;;;19.97;34.00
67803;BME280;54601;51.378;-1.342;2023-05-12T04:59:11;100792.41;;;19.63;34.58
67803;BME280;54601;51.378;-1.342;2023-05-12T05:01:36;100790.53;;;19.62;34.82
67803;BME280;54601;51.378;-1.342;2023-05-12T05:04:01;100796.26;;;19.48;34.66
67803;BME280;54601;51.378;-1.342;2023-05-12T05:06:26;100799.27;;;19.51;34.62
67803;BME280;54601;51.378;-1.342;2023-05-12T05:08:51;100805.30;;;20.11;34.09
67803;BME280;54601;51.378;-1.342;2023-05-12T05:11:17;100806.50;;;19.78;34.26
67803;BME280;54601;51.378;-1.342;2023-05-12T05:13:42;100811.02;;;19.90;34.02
67803;BME280;54601;51.378;-1.342;2023-05-12T05:16:07;100816.69;;;19.75;34.30
67803;BME280;54601;51.378;-1.342;2023-05-12T05:18:32;100819.42;;;20.12;34.02
67803;BME280;54601;51.378;-1.342;2023-05-12T05:20:57;100826.18;;;19.87;34.09
67803;BME280;54601;51.378;-1.342;2023-05-12T05:23:22;100833.36;;;19.67;34.38
67803;BME280;54601;51.378;-1.342;2023-05-12T05:25:47;100837.05;;;19.80;33.78
67803;BME280;54601;51.378;-1.342;2023-05-12T05:28:13;100842.65;;;19.89;34.01
67803;BME280;54601;51.378;-1.342;2023-05-12T05:30:38;100846.01;;;20.05;34.08
67803;BME280;54601;51.378;-1.342;2023-05-12T05:33:03;100843.85;;;19.47;34.63
67803;BME280;54601;51.378;-1.342;2023-05-12T05:35:29;100851.99;;;20.01;34.10
67803;BME280;54601;51.378;-1.342;2023-05-12T05:37:53;100859.79;;;19.69;34.27
67803;BME280;54601;51.378;-1.342;2023-05-12T05:40:18;100858.98;;;19.69;34.61
67803;BME280;54601;51.378;-1.342;2023-05-12T05:42:43;100860.93;;;19.15;34.73
67803;BME280;54601;51.378;-1.342;2023-05-12T05:45:11;100861.53;;;19.60;34.46
67803;BME280;54601;51.378;-1.342;2023-05-12T05:47:34;100867.07;;;19.36;34.44
67803;BME280;54601;51.378;-1.342;2023-05-12T05:49:59;100867.70;;;19.01;34.94
67803;BME280;54601;51.378;-1.342;2023-05-12T05:52:24;100869.44;;;18.95;35.36
67803;BME280;54601;51.378;-1.342;2023-05-12T05:54:49;100871.79;;;19.30;34.94
67803;BME280;54601;51.378;-1.342;2023-05-12T05:57:14;100876.79;;;19.40;35.13
67803;BME280;54601;51.378;-1.342;2023-05-12T05:59:40;100878.20;;;19.38;34.80
67803;BME280;54601;51.378;-1.342;2023-05-12T06:02:06;100883.15;;;19.17;35.07
67803;BME280;54601;51.378;-1.342;2023-05-12T06:04:30;100885.23;;;18.99;35.36
67803;BME280;54601;51.378;-1.342;2023-05-12T06:06:56;100892.19;;;19.52;34.98
67803;BME280;54601;51.378;-1.342;2023-05-12T06:09:20;100890.45;;;19.21;35.09
67803;BME280;54601;51.378;-1.342;2023-05-12T06:11:46;100893.01;;;19.10;35.30
67803;BME280;54601;51.378;-1.342;2023-05-12T06:14:11;100891.20;;;18.72;35.39
67803;BME280;54601;51.378;-1.342;2023-05-12T06:16:36;100891.43;;;19.63;34.82
67803;BME280;54601;51.378;-1.342;2023-05-12T06:19:01;100898.54;;;19.19;35.17
67803;BME280;54601;51.378;-1.342;2023-05-12T06:21:26;100899.60;;;19.49;34.72
67803;BME280;54601;51.378;-1.342;2023-05-12T06:23:51;100903.46;;;18.96;35.09
67803;BME280;54601;51.378;-1.342;2023-05-12T06:26:17;100905.42;;;19.42;34.85
67803;BME280;54601;51.378;-1.342;2023-05-12T06:28:42;100908.66;;;19.35;35.24
67803;BME280;54601;51.378;-1.342;2023-05-12T06:31:07;100910.35;;;19.18;35.18
67803;BME280;54601;51.378;-1.342;2023-05-12T06:33:32;100911.71;;;19.19;35.17
67803;BME280;54601;51.378;-1.342;2023-05-12T06:35:57;100915.89;;;18.99;35.42
67803;BME280;54601;51.378;-1.342;2023-05-12T06:38:22;100916.22;;;19.41;34.85
67803;BME280;54601;51.378;-1.342;2023-05-12T06:40:48;100919.23;;;19.08;35.35
67803;BME280;54601;51.378;-1.342;2023-05-12T06:43:13;100923.66;;;19.17;35.53
67803;BME280;54601;51.378;-1.342;2023-05-12T06:45:38;100927.50;;;19.43;35.17
67803;BME280;54601;51.378;-1.342;2023-05-12T06:48:04;100931.71;;;18.72;35.44
67803;BME280;54601;51.378;-1.342;2023-05-12T06:50:28;100934.61;;;19.30;35.08
67803;BME280;54601;51.378;-1.342;2023-05-12T06:52:54;100933.86;;;19.05;35.37
67803;BME280;54601;51.378;-1.342;2023-05-12T06:55:19;100937.17;;;19.29;35.11
67803;BME280;54601;51.378;-1.342;2023-05-12T06:57:44;100936.41;;;19.23;35.11
67803;BME280;54601;51.378;-1.342;2023-05-12T07:00:10;100938.62;;;19.42;34.87
67803;BME280;54601;51.378;-1.342;2023-05-12T07:02:34;100935.74;;;18.75;35.44
67803;BME280;54601;51.378;-1.342;2023-05-12T07:04:59;100937.70;;;18.85;35.62
67803;BME280;54601;51.378;-1.342;2023-05-12T07:07:25;100941.07;;;19.46;35.17
67803;BME280;54601;51.378;-1.342;2023-05-12T07:09:50;100941.92;;;18.78;35.81
67803;BME280;54601;51.378;-1.342;2023-05-12T07:12:15;100942.61;;;19.17;35.58
67803;BME280;54601;51.378;-1.342;2023-05-12T07:14:40;100945.26;;;19.18;35.29
67803;BME280;54601;51.378;-1.342;2023-05-12T07:17:05;100944.54;;;19.45;35.21
67803;BME280;54601;51.378;-1.342;2023-05-12T07:19:30;100944.28;;;19.09;35.40
67803;BME280;54601;51.378;-1.342;2023-05-12T07:21:56;100947.13;;;19.05;35.44
67803;BME280;54601;51.378;-1.342;2023-05-12T07:24:21;100946.34;;;18.90;35.70
67803;BME280;54601;51.378;-1.342;2023-05-12T07:26:46;100947.37;;;19.19;35.28
67803;BME280;54601;51.378;-1.342;2023-05-12T07:29:11;100947.92;;;18.98;35.54
67803;BME280;54601;51.378;-1.342;2023-05-12T07:31:36;100946.78;;;19.29;35.48
67803;BME280;54601;51.378;-1.342;2023-05-12T07:34:01;100946.74;;;19.27;35.50
67803;BME280;54601;51.378;-1.342;2023-05-12T07:36:27;100952.72;;;19.29;35.19
67803;BME280;54601;51.378;-1.342;2023-05-12T07:38:52;100958.53;;;19.28;35.18
67803;BME280;54601;51.378;-1.342;2023-05-12T07:41:17;100956.57;;;19.24;35.23
67803;BME280;54601;51.378;-1.342;2023-05-12T07:43:42;100961.64;;;19.03;35.20
67803;BME280;54601;51.378;-1.342;2023-05-12T07:46:07;100958.13;;;19.37;35.07
67803;BME280;54601;51.378;-1.342;2023-05-12T07:48:32;100959.71;;;18.99;35.23
67803;BME280;54601;51.378;-1.342;2023-05-12T07:50:57;100957.98;;;19.15;35.02
67803;BME280;54601;51.378;-1.342;2023-05-12T07:53:23;100961.22;;;19.08;35.11
67803;BME280;54601;51.378;-1.342;2023-05-12T07:55:48;100960.42;;;19.03;35.15
67803;BME280;54601;51.378;-1.342;2023-05-12T07:58:13;100962.44;;;19.32;35.17
67803;BME280;54601;51.378;-1.342;2023-05-12T08:00:38;100967.85;;;19.55;35.17
67803;BME280;54601;51.378;-1.342;2023-05-12T08:03:04;100973.20;;;19.47;35.27
67803;BME280;54601;51.378;-1.342;2023-05-12T08:05:28;100968.94;;;19.75;34.92
67803;BME280;54601;51.378;-1.342;2023-05-12T08:07:54;100970.71;;;19.31;35.18
67803;BME280;54601;51.378;-1.342;2023-05-12T08:10:19;100970.38;;;19.01;35.58
67803;BME280;54601;51.378;-1.342;2023-05-12T08:12:44;100972.51;;;18.93;35.35
67803;BME280;54601;51.378;-1.342;2023-05-12T08:15:09;100970.54;;;19.44;35.04
67803;BME280;54601;51.378;-1.342;2023-05-12T08:17:34;100972.94;;;19.41;35.09
67803;BME280;54601;51.378;-1.342;2023-05-12T08:19:59;100967.55;;;19.61;35.10
67803;BME280;54601;51.378;-1.342;2023-05-12T08:22:24;100974.67;;;19.10;35.09
67803;BME280;54601;51.378;-1.342;2023-05-12T08:24:50;100975.52;;;19.27;34.90
67803;BME280;54601;51.378;-1.342;2023-05-12T08:27:15;100974.27;;;19.47;34.94
67803;BME280;54601;51.378;-1.342;2023-05-12T08:29:40;100975.39;;;19.56;35.12
67803;BME280;54601;51.378;-1.342;2023-05-12T08:32:05;100974.06;;;19.15;35.40
67803;BME280;54601;51.378;-1.342;2023-05-12T08:34:30;100972.30;;;19.04;35.19
67803;BME280;54601;51.378;-1.342;2023-05-12T08:36:55;100970.89;;;19.35;35.13
67803;BME280;54601;51.378;-1.342;2023-05-12T08:39:21;100978.59;;;19.64;34.78
67803;BME280;54601;51.378;-1.342;2023-05-12T08:41:52;100977.52;;;19.14;35.07
67803;BME280;54601;51.378;-1.342;2023-05-12T08:44:11;100976.58;;;19.25;34.92
67803;BME280;54601;51.378;-1.342;2023-05-12T08:46:36;100979.60;;;19.29;34.92
67803;BME280;54601;51.378;-1.342;2023-05-12T08:49:03;100975.03;;;19.89;34.51
67803;BME280;54601;51.378;-1.342;2023-05-12T08:51:27;100979.65;;;19.70;34.75
67803;BME280;54601;51.378;-1.342;2023-05-12T08:53:52;100989.08;;;19.57;34.86
67803;BME280;54601;51.378;-1.342;2023-05-12T08:56:17;100985.83;;;19.38;34.77
67803;BME280;54601;51.378;-1.342;2023-05-12T08:58:41;100982.40;;;19.88;34.48
67803;BME280;54601;51.378;-1.342;2023-05-12T09:01:07;100983.54;;;19.98;34.42
67803;BME280;54601;51.378;-1.342;2023-05-12T09:03:33;100982.10;;;19.94;34.66
67803;BME280;54601;51.378;-1.342;2023-05-12T09:05:57;100977.88;;;19.83;34.59
67803;BME280;54601;51.378;-1.342;2023-05-12T09:08:23;100981.02;;;19.15;35.29
67803;BME280;54601;51.378;-1.342;2023-05-12T09:10:47;100979.88;;;18.63;35.87
67803;BME280;54601;51.378;-1.342;2023-05-12T09:13:16;100982.41;;;18.97;35.77
67803;BME280;54601;51.378;-1.342;2023-05-12T09:15:40;100985.40;;;19.35;35.05
67803;BME280;54601;51.378;-1.342;2023-05-12T09:18:03;100981.02;;;18.96;35.44
67803;BME280;54601;51.378;-1.342;2023-05-12T09:20:28;100983.40;;;19.92;34.85
67803;BME280;54601;51.378;-1.342;2023-05-12T09:22:53;100984.31;;;19.61;35.17
67803;BME280;54601;51.378;-1.342;2023-05-12T09:25:19;100986.40;;;19.51;35.40
67803;BME280;54601;51.378;-1.342;2023-05-12T09:27:45;100987.95;;;19.08;35.49
67803;BME280;54601;51.378;-1.342;2023-05-12T09:30:09;100989.25;;;18.92;35.96
67803;BME280;54601;51.378;-1.342;2023-05-12T09:32:34;100990.40;;;18.90;35.99
67803;BME280;54601;51.378;-1.342;2023-05-12T09:35:01;100985.56;;;18.61;36.11
67803;BME280;54601;51.378;-1.342;2023-05-12T09:37:29;100988.96;;;19.36;35.65
67803;BME280;54601;51.378;-1.342;2023-05-12T09:39:57;100984.73;;;19.49;35.15
67803;BME280;54601;51.378;-1.342;2023-05-12T09:42:14;100991.20;;;19.18;35.83
67803;BME280;54601;51.378;-1.342;2023-05-12T09:44:39;100990.47;;;19.13;35.97
67803;BME280;54601;51.378;-1.342;2023-05-12T09:47:06;100992.54;;;19.13;35.83
67803;BME280;54601;51.378;-1.342;2023-05-12T09:49:29;100991.66;;;19.12;35.88
67803;BME280;54601;51.378;-1.342;2023-05-12T09:51:56;100994.84;;;19.22;35.81
67803;BME280;54601;51.378;-1.342;2023-05-12T09:54:24;100999.53;;;18.84;35.89
67803;BME280;54601;51.378;-1.342;2023-05-12T09:56:45;101001.58;;;19.08;35.64
67803;BME280;54601;51.378;-1.342;2023-05-12T09:59:12;101000.47;;;19.09;35.63
67803;BME280;54601;51.378;-1.342;2023-05-12T10:01:35;100994.96;;;19.16;35.68
67803;BME280;54601;51.378;-1.342;2023-05-12T10:04:01;100999.39;;;19.53;35.54
67803;BME280;54601;51.378;-1.342;2023-05-12T10:06:32;101002.54;;;18.94;35.86
67803;BME280;54601;51.378;-1.342;2023-05-12T10:08:54;101000.21;;;19.17;35.72
67803;BME280;54601;51.378;-1.342;2023-05-12T10:11:16;100999.69;;;19.58;35.86
67803;BME280;54601;51.378;-1.342;2023-05-12T10:13:42;100999.66;;;19.32;35.56
67803;BME280;54601;51.378;-1.342;2023-05-12T10:16:06;100990.83;;;19.38;35.42
67803;BME280;54601;51.378;-1.342;2023-05-12T10:18:33;100994.57;;;19.25;35.73
67803;BME280;54601;51.378;-1.342;2023-05-12T10:20:57;100998.53;;;19.27;35.57
67803;BME280;54601;51.378;-1.342;2023-05-12T10:23:21;101001.69;;;19.28;35.62
67803;BME280;54601;51.378;-1.342;2023-05-12T10:25:47;101008.17;;;19.52;35.59
67803;BME280;54601;51.378;-1.342;2023-05-12T10:28:12;101004.46;;;19.28;35.56
67803;BME280;54601;51.378;-1.342;2023-05-12T10:30:37;101010.07;;;19.14;35.77
67803;BME280;54601;51.378;-1.342;2023-05-12T10:33:02;101012.40;;;19.19;35.66
67803;BME280;54601;51.378;-1.342;2023-05-12T10:35:32;101009.51;;;19.34;35.57
67803;BME280;54601;51.378;-1.342;2023-05-12T10:37:52;101007.22;;;19.98;35.27
67803;BME280;54601;51.378;-1.342;2023-05-12T10:40:22;101001.31;;;19.82;35.10
67803;BME280;54601;51.378;-1.342;2023-05-12T10:42:42;101000.40;;;19.80;35.42
67803;BME280;54601;51.378;-1.342;2023-05-12T10:45:14;100995.62;;;19.64;35.35
67803;BME280;54601;51.378;-1.342;2023-05-12T10:47:36;100995.91;;;19.64;35.19
67803;BME280;54601;51.378;-1.342;2023-05-12T10:49:58;101003.49;;;19.38;35.64
67803;BME280;54601;51.378;-1.342;2023-05-12T10:52:28;101009.57;;;19.43;35.53
67803;BME280;54601;51.378;-1.342;2023-05-12T10:54:48;100997.54;;;19.55;35.45
67803;BME280;54601;51.378;-1.342;2023-05-12T10:57:15;100997.48;;;19.57;35.39
67803;BME280;54601;51.378;-1.342;2023-05-12T10:59:46;100989.56;;;19.67;35.30
67803;BME280;54601;51.378;-1.342;2023-05-12T11:02:05;100983.48;;;19.65;35.34
67803;BME280;54601;51.378;-1.342;2023-05-12T11:04:35;100985.73;;;19.75;35.19
67803;BME280;54601;51.378;-1.342;2023-05-12T11:06:57;100987.89;;;19.46;35.54
67803;BME280;54601;51.378;-1.342;2023-05-12T11:09:19;100985.08;;;19.66;35.26
67803;BME280;54601;51.378;-1.342;2023-05-12T11:11:44;100982.42;;;19.66;35.29
67803;BME280;54601;51.378;-1.342;2023-05-12T11:14:09;100986.31;;;19.78;34.86
67803;BME280;54601;51.378;-1.342;2023-05-12T11:16:40;100977.88;;;20.06;34.83
67803;BME280;54601;51.378;-1.342;2023-05-12T11:19:00;100986.13;;;19.90;34.97
67803;BME280;54601;51.378;-1.342;2023-05-12T11:21:24;100977.74;;;20.20;34.62
67803;BME280;54601;51.378;-1.342;2023-05-12T11:23:49;100974.55;;;19.45;35.25
67803;BME280;54601;51.378;-1.342;2023-05-12T11:26:16;100970.45;;;19.99;34.90
67803;BME280;54601;51.378;-1.342;2023-05-12T11:28:40;100974.02;;;20.18;35.03
67803;BME280;54601;51.378;-1.342;2023-05-12T11:31:05;100979.00;;;19.88;35.04
67803;BME280;54601;51.378;-1.342;2023-05-12T11:33:30;100979.77;;;19.55;35.41
67803;BME280;54601;51.378;-1.342;2023-05-12T11:35:55;100983.09;;;19.50;35.49
67803;BME280;54601;51.378;-1.342;2023-05-12T11:38:20;100990.06;;;20.25;34.99
67803;BME280;54601;51.378;-1.342;2023-05-12T11:40:46;100989.95;;;19.79;35.21
67803;BME280;54601;51.378;-1.342;2023-05-12T11:43:11;100989.57;;;19.90;35.09
67803;BME280;54601;51.378;-1.342;2023-05-12T11:45:35;100978.09;;;19.96;35.07
67803;BME280;54601;51.378;-1.342;2023-05-12T11:48:05;100990.42;;;19.85;34.92
67803;BME280;54601;51.378;-1.342;2023-05-12T11:50:26;100993.50;;;19.98;35.07
67803;BME280;54601;51.378;-1.342;2023-05-12T11:52:51;100990.49;;;19.80;35.27
67803;BME280;54601;51.378;-1.342;2023-05-12T11:55:21;100993.42;;;20.02;35.01
67803;BME280;54601;51.378;-1.342;2023-05-12T11:57:41;100994.21;;;19.95;34.78
67803;BME280;54601;51.378;-1.342;2023-05-12T12:00:07;100992.82;;;20.01;34.99
67803;BME280;54601;51.378;-1.342;2023-05-12T12:02:31;100987.75;;;19.67;35.42
67803;BME280;54601;51.378;-1.342;2023-05-12T12:04:56;100990.84;;;19.94;35.11
67803;BME280;54601;51.378;-1.342;2023-05-12T12:07:27;100989.81;;;19.65;35.42
67803;BME280;54601;51.378;-1.342;2023-05-12T12:09:47;100991.24;;;20.09;34.87
67803;BME280;54601;51.378;-1.342;2023-05-12T12:12:12;100990.01;;;19.86;35.16
67803;BME280;54601;51.378;-1.342;2023-05-12T12:14:37;100992.07;;;19.67;35.14
67803;BME280;54601;51.378;-1.342;2023-05-12T12:17:03;100996.50;;;19.90;35.14
67803;BME280;54601;51.378;-1.342;2023-05-12T12:19:27;100992.00;;;19.77;35.31
67803;BME280;54601;51.378;-1.342;2023-05-12T12:21:52;100990.86;;;19.87;35.22
67803;BME280;54601;51.378;-1.342;2023-05-12T12:24:17;100983.78;;;19.95;35.12
67803;BME280;54601;51.378;-1.342;2023-05-12T12:26:42;100983.69;;;19.63;35.26
67803;BME280;54601;51.378;-1.342;2023-05-12T12:29:08;100979.78;;;19.71;35.40